Columbus, Ohio
Traffic Map
Current Weather Conditions
Columbus, Ohio
Overcast
Overcast

Feels Like: 1°
Wind Chill: Ceiling: 2000
Heat Index: Visibility: 10mi
Dew Point: Wind: 12mph
Humidity: 87% Direction: 320° (NW)
Pressure: 29.87in Gusts: 0mph
Raw Report DataKCMH 262201Z 32010KT 10SM SCT013 OVC020 05/03 A2987 RMK AO2
Traffic Incident Summary
Active as of:
Severity:
Category:
InformationThere was an issue retrieving the traffic information for this location. Please try a different location or try again shortly.
Advertisements
Track Severe Weather on mobile